createdAt,value
2023-03-30T00:00:00.000Z,1.66
2023-03-30T00:15:00.000Z,2.18
2023-03-30T00:30:00.000Z,1.73
2023-03-30T00:45:00.000Z,1.99
2023-03-30T01:00:00.000Z,1.58
2023-03-30T01:15:00.000Z,1.93
2023-03-30T01:30:00.000Z,1.65
2023-03-30T01:45:00.000Z,1.85
2023-03-30T02:00:00.000Z,1.95
2023-03-30T02:15:00.000Z,1.84
2023-03-30T02:30:00.000Z,1.61
2023-03-30T02:45:00.000Z,2.16
2023-03-30T03:00:00.000Z,2.34
2023-03-30T03:15:00.000Z,2.92
2023-03-30T03:30:00.000Z,2.96
2023-03-30T03:45:00.000Z,3.19
2023-03-30T04:00:00.000Z,3.31
2023-03-30T04:15:00.000Z,3.12
2023-03-30T04:30:00.000Z,3.44
2023-03-30T04:45:00.000Z,3.33
2023-03-30T05:00:00.000Z,3.42
2023-03-30T05:15:00.000Z,3.52
2023-03-30T05:30:00.000Z,3.6
2023-03-30T05:45:00.000Z,3.6
2023-03-30T06:00:00.000Z,3.45
2023-03-30T06:15:00.000Z,3.41
2023-03-30T06:30:00.000Z,3.46
2023-03-30T06:45:00.000Z,3.45
2023-03-30T07:00:00.000Z,3.62
2023-03-30T07:15:00.000Z,3.89
2023-03-30T07:30:00.000Z,3.31
2023-03-30T07:45:00.000Z,3.38
2023-03-30T08:00:00.000Z,3.41
2023-03-30T08:15:00.000Z,3.47
2023-03-30T08:30:00.000Z,3.65
2023-03-30T08:45:00.000Z,3.29
2023-03-30T09:00:00.000Z,3.44
2023-03-30T09:15:00.000Z,3.33
2023-03-30T09:30:00.000Z,3.31
2023-03-30T09:45:00.000Z,3.25
2023-03-30T10:00:00.000Z,3.22
2023-03-30T10:15:00.000Z,3.46
2023-03-30T10:30:00.000Z,3.52
2023-03-30T10:45:00.000Z,3.48
2023-03-30T11:00:00.000Z,4.14
2023-03-30T11:15:00.000Z,3.58
2023-03-30T11:30:00.000Z,3.54
2023-03-30T11:45:00.000Z,4.01
2023-03-30T12:00:00.000Z,5.07
2023-03-30T12:15:00.000Z,5.39
2023-03-30T12:30:00.000Z,5.48
2023-03-30T12:45:00.000Z,10.34
2023-03-30T13:00:00.000Z,9.28
2023-03-30T13:15:00.000Z,6.62
2023-03-30T13:30:00.000Z,6.33
2023-03-30T13:45:00.000Z,6.89
2023-03-30T14:00:00.000Z,6.38
2023-03-30T14:15:00.000Z,5.65
2023-03-30T14:30:00.000Z,5.41
2023-03-30T14:45:00.000Z,5.51
2023-03-30T15:00:00.000Z,7.55
2023-03-30T15:15:00.000Z,9.22
2023-03-30T15:30:00.000Z,7.32
2023-03-30T15:45:00.000Z,6.67
2023-03-30T16:00:00.000Z,3.11
2023-03-30T16:15:00.000Z,5.56
2023-03-30T16:30:00.000Z,6.52
2023-03-30T16:45:00.000Z,3.47
2023-03-30T17:00:00.000Z,5.09
2023-03-30T17:15:00.000Z,4.56
2023-03-30T17:30:00.000Z,4.49
2023-03-30T17:45:00.000Z,3.69
2023-03-30T18:00:00.000Z,4.87
2023-03-30T18:15:00.000Z,5.22
2023-03-30T18:30:00.000Z,5
2023-03-30T18:45:00.000Z,5.39
2023-03-30T19:00:00.000Z,5.33
2023-03-30T19:15:00.000Z,5.27
2023-03-30T19:30:00.000Z,5.32
2023-03-30T19:45:00.000Z,5
2023-03-30T20:00:00.000Z,5.06
2023-03-30T20:15:00.000Z,4.32
2023-03-30T20:30:00.000Z,4.21
2023-03-30T20:45:00.000Z,4.32
2023-03-30T21:00:00.000Z,3.82
2023-03-30T21:15:00.000Z,4.35
2023-03-30T21:30:00.000Z,4.45
2023-03-30T21:45:00.000Z,7.93
2023-03-30T22:00:00.000Z,5.94
2023-03-30T22:15:00.000Z,4.75
2023-03-30T22:30:00.000Z,6.73
2023-03-30T22:45:00.000Z,7.88
2023-03-30T23:00:00.000Z,9.65
2023-03-30T23:15:00.000Z,7.15
2023-03-30T23:30:00.000Z,7.06
2023-03-30T23:45:00.000Z,7.34
